sensor_id;sensor_type;location;lat;lon;timestamp;P1;durP1;ratioP1;P2;durP2;ratioP2
53959;SDS011;39866;48.638;-2.020;2023-01-29T13:59:23;20.42;;;15.93;;
53959;SDS011;39866;48.638;-2.020;2023-01-29T14:02:19;18.00;;;15.75;;
53959;SDS011;39866;48.638;-2.020;2023-01-29T14:04:44;19.13;;;16.02;;
53959;SDS011;39866;48.638;-2.020;2023-01-29T14:07:52;19.02;;;15.30;;
53959;SDS011;39866;48.638;-2.020;2023-01-29T14:12:41;19.73;;;15.20;;
53959;SDS011;39866;48.638;-2.020;2023-01-29T14:25:47;16.35;;;14.07;;
53959;SDS011;39866;48.638;-2.020;2023-01-29T14:28:14;17.73;;;14.70;;
53959;SDS011;39866;48.638;-2.020;2023-01-29T14:30:46;19.65;;;15.52;;
53959;SDS011;39866;48.638;-2.020;2023-01-29T14:38:37;18.17;;;14.68;;
53959;SDS011;39866;48.638;-2.020;2023-01-29T14:43:32;18.45;;;15.38;;
53959;SDS011;39866;48.638;-2.020;2023-01-29T14:46:39;18.45;;;14.50;;
53959;SDS011;39866;48.638;-2.020;2023-01-29T14:48:58;18.23;;;16.15;;
53959;SDS011;39866;48.638;-2.020;2023-01-29T14:51:24;17.63;;;14.85;;
53959;SDS011;39866;48.638;-2.020;2023-01-29T14:56:58;20.20;;;15.55;;
53959;SDS011;39866;48.638;-2.020;2023-01-29T15:00:12;19.63;;;14.80;;
53959;SDS011;39866;48.638;-2.020;2023-01-29T15:02:29;16.52;;;14.18;;
53959;SDS011;39866;48.638;-2.020;2023-01-29T15:05:02;21.08;;;16.92;;
53959;SDS011;39866;48.638;-2.020;2023-01-29T15:12:56;19.25;;;16.25;;
53959;SDS011;39866;48.638;-2.020;2023-01-29T15:18:07;18.30;;;16.30;;
53959;SDS011;39866;48.638;-2.020;2023-01-29T15:20:34;18.77;;;15.23;;
53959;SDS011;39866;48.638;-2.020;2023-01-29T15:23:00;19.08;;;16.25;;
53959;SDS011;39866;48.638;-2.020;2023-01-29T15:25:33;21.35;;;16.13;;
53959;SDS011;39866;48.638;-2.020;2023-01-29T15:28:00;20.15;;;16.83;;
53959;SDS011;39866;48.638;-2.020;2023-01-29T15:30:31;20.40;;;16.73;;
53959;SDS011;39866;48.638;-2.020;2023-01-29T15:32:57;19.10;;;16.48;;
53959;SDS011;39866;48.638;-2.020;2023-01-29T15:35:39;19.27;;;16.52;;
53959;SDS011;39866;48.638;-2.020;2023-01-29T15:38:16;19.02;;;16.48;;
53959;SDS011;39866;48.638;-2.020;2023-01-29T15:40:50;24.02;;;18.05;;
53959;SDS011;39866;48.638;-2.020;2023-01-29T15:43:26;21.90;;;18.48;;
53959;SDS011;39866;48.638;-2.020;2023-01-29T15:45:58;20.38;;;17.83;;
53959;SDS011;39866;48.638;-2.020;2023-01-29T15:48:39;20.95;;;16.58;;
53959;SDS011;39866;48.638;-2.020;2023-01-29T15:51:07;21.85;;;17.80;;
53959;SDS011;39866;48.638;-2.020;2023-01-29T15:53:47;20.98;;;17.20;;
53959;SDS011;39866;48.638;-2.020;2023-01-29T15:56:30;21.48;;;17.75;;
53959;SDS011;39866;48.638;-2.020;2023-01-29T15:58:59;18.70;;;16.55;;
53959;SDS011;39866;48.638;-2.020;2023-01-29T16:01:27;23.13;;;17.80;;
53959;SDS011;39866;48.638;-2.020;2023-01-29T16:03:53;20.33;;;17.38;;
53959;SDS011;39866;48.638;-2.020;2023-01-29T16:06:19;20.40;;;17.90;;
53959;SDS011;39866;48.638;-2.020;2023-01-29T16:08:47;19.75;;;16.83;;
53959;SDS011;39866;48.638;-2.020;2023-01-29T16:11:15;21.88;;;16.75;;
53959;SDS011;39866;48.638;-2.020;2023-01-29T16:13:43;21.83;;;17.30;;
53959;SDS011;39866;48.638;-2.020;2023-01-29T16:18:39;25.30;;;19.20;;
53959;SDS011;39866;48.638;-2.020;2023-01-29T16:23:42;26.15;;;19.42;;
53959;SDS011;39866;48.638;-2.020;2023-01-29T16:26:16;24.38;;;19.48;;
53959;SDS011;39866;48.638;-2.020;2023-01-29T16:28:45;26.63;;;19.70;;
53959;SDS011;39866;48.638;-2.020;2023-01-29T16:31:12;25.75;;;21.15;;
53959;SDS011;39866;48.638;-2.020;2023-01-29T16:33:44;25.27;;;19.48;;
53959;SDS011;39866;48.638;-2.020;2023-01-29T16:36:16;27.45;;;21.48;;
53959;SDS011;39866;48.638;-2.020;2023-01-29T16:38:54;27.55;;;21.63;;
53959;SDS011;39866;48.638;-2.020;2023-01-29T16:43:52;26.00;;;21.00;;
53959;SDS011;39866;48.638;-2.020;2023-01-29T16:48:58;23.67;;;18.88;;
53959;SDS011;39866;48.638;-2.020;2023-01-29T16:51:25;21.30;;;18.23;;
53959;SDS011;39866;48.638;-2.020;2023-01-29T16:53:56;22.73;;;19.05;;
53959;SDS011;39866;48.638;-2.020;2023-01-29T16:56:43;21.98;;;18.50;;
53959;SDS011;39866;48.638;-2.020;2023-01-29T16:59:20;21.98;;;17.98;;
53959;SDS011;39866;48.638;-2.020;2023-01-29T17:01:52;22.77;;;18.85;;
53959;SDS011;39866;48.638;-2.020;2023-01-29T17:04:19;24.45;;;19.05;;
53959;SDS011;39866;48.638;-2.020;2023-01-29T17:06:46;22.73;;;19.15;;
53959;SDS011;39866;48.638;-2.020;2023-01-29T17:09:20;21.50;;;18.45;;
53959;SDS011;39866;48.638;-2.020;2023-01-29T17:11:52;26.70;;;19.25;;
53959;SDS011;39866;48.638;-2.020;2023-01-29T17:14:21;23.73;;;19.60;;
53959;SDS011;39866;48.638;-2.020;2023-01-29T17:16:49;22.27;;;19.70;;
53959;SDS011;39866;48.638;-2.020;2023-01-29T17:19:18;21.98;;;18.50;;
53959;SDS011;39866;48.638;-2.020;2023-01-29T17:21:47;22.50;;;19.00;;
53959;SDS011;39866;48.638;-2.020;2023-01-29T17:24:13;25.55;;;20.10;;
53959;SDS011;39866;48.638;-2.020;2023-01-29T17:26:38;23.17;;;19.48;;
53959;SDS011;39866;48.638;-2.020;2023-01-29T17:29:04;23.67;;;19.67;;
53959;SDS011;39866;48.638;-2.020;2023-01-29T17:31:32;20.88;;;18.15;;
53959;SDS011;39866;48.638;-2.020;2023-01-29T17:33:57;27.65;;;21.17;;
53959;SDS011;39866;48.638;-2.020;2023-01-29T17:36:22;25.38;;;19.90;;
53959;SDS011;39866;48.638;-2.020;2023-01-29T17:38:48;23.65;;;19.77;;
53959;SDS011;39866;48.638;-2.020;2023-01-29T17:41:23;24.45;;;19.85;;
53959;SDS011;39866;48.638;-2.020;2023-01-29T17:43:51;27.63;;;22.17;;
53959;SDS011;39866;48.638;-2.020;2023-01-29T17:46:17;25.92;;;20.75;;
53959;SDS011;39866;48.638;-2.020;2023-01-29T17:48:43;23.58;;;20.58;;
53959;SDS011;39866;48.638;-2.020;2023-01-29T17:51:12;24.60;;;21.02;;
53959;SDS011;39866;48.638;-2.020;2023-01-29T17:53:40;25.88;;;21.10;;
53959;SDS011;39866;48.638;-2.020;2023-01-29T17:56:09;25.00;;;21.15;;
53959;SDS011;39866;48.638;-2.020;2023-01-29T17:58:39;24.97;;;20.47;;
53959;SDS011;39866;48.638;-2.020;2023-01-29T18:01:04;24.73;;;20.83;;
53959;SDS011;39866;48.638;-2.020;2023-01-29T18:03:30;23.63;;;19.15;;
53959;SDS011;39866;48.638;-2.020;2023-01-29T18:05:55;24.63;;;20.48;;
53959;SDS011;39866;48.638;-2.020;2023-01-29T18:08:23;24.58;;;20.10;;
53959;SDS011;39866;48.638;-2.020;2023-01-29T18:10:52;22.23;;;19.60;;
53959;SDS011;39866;48.638;-2.020;2023-01-29T18:13:18;24.73;;;19.95;;
53959;SDS011;39866;48.638;-2.020;2023-01-29T18:15:43;24.80;;;19.88;;
53959;SDS011;39866;48.638;-2.020;2023-01-29T18:18:13;24.50;;;20.00;;
53959;SDS011;39866;48.638;-2.020;2023-01-29T18:20:40;24.17;;;19.58;;
53959;SDS011;39866;48.638;-2.020;2023-01-29T18:23:06;24.33;;;19.67;;
53959;SDS011;39866;48.638;-2.020;2023-01-29T18:25:32;23.63;;;19.90;;
53959;SDS011;39866;48.638;-2.020;2023-01-29T18:27:58;27.45;;;20.50;;
53959;SDS011;39866;48.638;-2.020;2023-01-29T18:30:24;25.98;;;20.40;;
53959;SDS011;39866;48.638;-2.020;2023-01-29T18:32:49;26.95;;;21.25;;
53959;SDS011;39866;48.638;-2.020;2023-01-29T18:35:15;27.00;;;20.48;;
53959;SDS011;39866;48.638;-2.020;2023-01-29T18:37:43;24.08;;;20.35;;
53959;SDS011;39866;48.638;-2.020;2023-01-29T18:40:09;22.92;;;19.98;;
53959;SDS011;39866;48.638;-2.020;2023-01-29T18:42:41;23.35;;;19.65;;
53959;SDS011;39866;48.638;-2.020;2023-01-29T18:45:09;25.10;;;20.40;;
53959;SDS011;39866;48.638;-2.020;2023-01-29T18:47:36;23.80;;;20.30;;
53959;SDS011;39866;48.638;-2.020;2023-01-29T18:50:01;26.15;;;20.23;;
53959;SDS011;39866;48.638;-2.020;2023-01-29T18:52:26;23.30;;;20.27;;
53959;SDS011;39866;48.638;-2.020;2023-01-29T18:54:52;24.65;;;21.60;;
53959;SDS011;39866;48.638;-2.020;2023-01-29T18:57:17;26.35;;;20.80;;
53959;SDS011;39866;48.638;-2.020;2023-01-29T18:59:43;27.38;;;21.80;;
53959;SDS011;39866;48.638;-2.020;2023-01-29T19:02:10;26.40;;;20.98;;
53959;SDS011;39866;48.638;-2.020;2023-01-29T19:04:38;26.35;;;20.33;;
53959;SDS011;39866;48.638;-2.020;2023-01-29T19:07:03;26.75;;;21.60;;
53959;SDS011;39866;48.638;-2.020;2023-01-29T19:09:28;27.65;;;21.50;;
53959;SDS011;39866;48.638;-2.020;2023-01-29T19:11:54;27.95;;;22.35;;
53959;SDS011;39866;48.638;-2.020;2023-01-29T19:14:19;24.98;;;21.05;;
53959;SDS011;39866;48.638;-2.020;2023-01-29T19:16:44;28.50;;;21.50;;
53959;SDS011;39866;48.638;-2.020;2023-01-29T19:19:10;28.90;;;22.35;;
53959;SDS011;39866;48.638;-2.020;2023-01-29T19:21:36;32.55;;;22.58;;
53959;SDS011;39866;48.638;-2.020;2023-01-29T19:24:01;31.95;;;22.08;;
53959;SDS011;39866;48.638;-2.020;2023-01-29T19:26:27;28.00;;;22.20;;
53959;SDS011;39866;48.638;-2.020;2023-01-29T19:28:52;25.48;;;21.38;;
53959;SDS011;39866;48.638;-2.020;2023-01-29T19:31:18;24.50;;;20.52;;
53959;SDS011;39866;48.638;-2.020;2023-01-29T19:33:43;26.50;;;21.00;;
53959;SDS011;39866;48.638;-2.020;2023-01-29T19:36:08;24.77;;;20.45;;
53959;SDS011;39866;48.638;-2.020;2023-01-29T19:38:35;23.33;;;20.15;;
53959;SDS011;39866;48.638;-2.020;2023-01-29T19:41:02;27.90;;;21.88;;
53959;SDS011;39866;48.638;-2.020;2023-01-29T19:43:29;25.13;;;19.67;;
53959;SDS011;39866;48.638;-2.020;2023-01-29T19:45:56;24.45;;;20.15;;
53959;SDS011;39866;48.638;-2.020;2023-01-29T19:48:23;24.55;;;20.30;;
53959;SDS011;39866;48.638;-2.020;2023-01-29T19:50:51;26.20;;;19.92;;
53959;SDS011;39866;48.638;-2.020;2023-01-29T19:53:24;29.92;;;22.70;;
53959;SDS011;39866;48.638;-2.020;2023-01-29T19:55:57;26.95;;;21.85;;
53959;SDS011;39866;48.638;-2.020;2023-01-29T19:58:25;28.30;;;22.00;;
53959;SDS011;39866;48.638;-2.020;2023-01-29T20:00:58;30.63;;;23.88;;
53959;SDS011;39866;48.638;-2.020;2023-01-29T20:03:25;29.40;;;21.75;;
53959;SDS011;39866;48.638;-2.020;2023-01-29T20:05:53;25.10;;;20.77;;
53959;SDS011;39866;48.638;-2.020;2023-01-29T20:08:18;25.15;;;20.85;;
53959;SDS011;39866;48.638;-2.020;2023-01-29T20:10:44;23.42;;;19.38;;
53959;SDS011;39866;48.638;-2.020;2023-01-29T20:13:11;22.88;;;19.08;;
53959;SDS011;39866;48.638;-2.020;2023-01-29T20:15:37;23.10;;;19.63;;
53959;SDS011;39866;48.638;-2.020;2023-01-29T20:18:02;24.05;;;19.23;;
53959;SDS011;39866;48.638;-2.020;2023-01-29T20:20:29;21.00;;;17.92;;
53959;SDS011;39866;48.638;-2.020;2023-01-29T20:22:55;24.48;;;19.92;;
53959;SDS011;39866;48.638;-2.020;2023-01-29T20:25:20;24.55;;;19.42;;
53959;SDS011;39866;48.638;-2.020;2023-01-29T20:27:45;25.95;;;19.83;;
53959;SDS011;39866;48.638;-2.020;2023-01-29T20:30:11;24.77;;;19.27;;
53959;SDS011;39866;48.638;-2.020;2023-01-29T20:32:36;25.83;;;19.95;;
53959;SDS011;39866;48.638;-2.020;2023-01-29T20:35:01;23.33;;;19.33;;
53959;SDS011;39866;48.638;-2.020;2023-01-29T20:37:27;21.75;;;18.58;;
53959;SDS011;39866;48.638;-2.020;2023-01-29T20:39:52;24.90;;;19.02;;
53959;SDS011;39866;48.638;-2.020;2023-01-29T20:42:18;22.42;;;17.63;;
53959;SDS011;39866;48.638;-2.020;2023-01-29T20:44:43;23.83;;;19.30;;
53959;SDS011;39866;48.638;-2.020;2023-01-29T20:47:08;21.30;;;17.98;;
53959;SDS011;39866;48.638;-2.020;2023-01-29T20:49:34;23.67;;;18.52;;
53959;SDS011;39866;48.638;-2.020;2023-01-29T20:51:59;23.55;;;18.75;;
53959;SDS011;39866;48.638;-2.020;2023-01-29T20:54:24;23.35;;;18.05;;
53959;SDS011;39866;48.638;-2.020;2023-01-29T20:56:50;22.20;;;18.08;;
53959;SDS011;39866;48.638;-2.020;2023-01-29T20:59:15;23.25;;;18.50;;
53959;SDS011;39866;48.638;-2.020;2023-01-29T21:01:40;25.38;;;18.42;;
53959;SDS011;39866;48.638;-2.020;2023-01-29T21:04:06;26.75;;;18.77;;
53959;SDS011;39866;48.638;-2.020;2023-01-29T21:06:31;23.08;;;18.80;;
53959;SDS011;39866;48.638;-2.020;2023-01-29T21:08:57;24.35;;;19.23;;
53959;SDS011;39866;48.638;-2.020;2023-01-29T21:11:22;23.73;;;19.05;;
53959;SDS011;39866;48.638;-2.020;2023-01-29T21:13:47;22.00;;;17.38;;
53959;SDS011;39866;48.638;-2.020;2023-01-29T21:16:13;23.30;;;18.73;;
53959;SDS011;39866;48.638;-2.020;2023-01-29T21:18:38;23.05;;;18.85;;
53959;SDS011;39866;48.638;-2.020;2023-01-29T21:21:03;24.40;;;18.92;;
53959;SDS011;39866;48.638;-2.020;2023-01-29T21:23:29;24.50;;;18.50;;
53959;SDS011;39866;48.638;-2.020;2023-01-29T21:26:01;25.50;;;19.50;;
53959;SDS011;39866;48.638;-2.020;2023-01-29T21:28:28;26.90;;;17.80;;
53959;SDS011;39866;48.638;-2.020;2023-01-29T21:31:03;23.95;;;18.67;;
53959;SDS011;39866;48.638;-2.020;2023-01-29T21:33:30;22.15;;;18.20;;
53959;SDS011;39866;48.638;-2.020;2023-01-29T21:35:56;21.65;;;17.58;;
53959;SDS011;39866;48.638;-2.020;2023-01-29T21:38:22;23.73;;;18.33;;
53959;SDS011;39866;48.638;-2.020;2023-01-29T21:40:47;23.08;;;18.08;;
53959;SDS011;39866;48.638;-2.020;2023-01-29T21:43:13;23.60;;;17.13;;
53959;SDS011;39866;48.638;-2.020;2023-01-29T21:45:40;21.27;;;16.95;;
53959;SDS011;39866;48.638;-2.020;2023-01-29T21:48:07;24.25;;;18.08;;
53959;SDS011;39866;48.638;-2.020;2023-01-29T21:50:33;21.80;;;17.50;;
53959;SDS011;39866;48.638;-2.020;2023-01-29T21:52:59;21.98;;;17.00;;
53959;SDS011;39866;48.638;-2.020;2023-01-29T21:55:25;21.88;;;17.27;;
53959;SDS011;39866;48.638;-2.020;2023-01-29T21:57:50;19.08;;;15.93;;
53959;SDS011;39866;48.638;-2.020;2023-01-29T22:00:16;21.00;;;16.17;;
53959;SDS011;39866;48.638;-2.020;2023-01-29T22:02:42;18.35;;;15.93;;
53959;SDS011;39866;48.638;-2.020;2023-01-29T22:05:08;22.02;;;17.45;;
53959;SDS011;39866;48.638;-2.020;2023-01-29T22:07:35;20.02;;;16.08;;
53959;SDS011;39866;48.638;-2.020;2023-01-29T22:10:00;22.90;;;16.33;;
53959;SDS011;39866;48.638;-2.020;2023-01-29T22:12:26;20.20;;;16.33;;
53959;SDS011;39866;48.638;-2.020;2023-01-29T22:14:52;19.75;;;16.40;;
53959;SDS011;39866;48.638;-2.020;2023-01-29T22:17:17;20.17;;;16.40;;
53959;SDS011;39866;48.638;-2.020;2023-01-29T22:19:44;20.17;;;16.95;;
53959;SDS011;39866;48.638;-2.020;2023-01-29T22:22:13;21.75;;;17.00;;
53959;SDS011;39866;48.638;-2.020;2023-01-29T22:24:40;20.65;;;16.90;;
53959;SDS011;39866;48.638;-2.020;2023-01-29T22:27:08;21.05;;;15.80;;
53959;SDS011;39866;48.638;-2.020;2023-01-29T22:29:35;18.88;;;15.55;;
53959;SDS011;39866;48.638;-2.020;2023-01-29T22:32:01;21.88;;;16.20;;
53959;SDS011;39866;48.638;-2.020;2023-01-29T22:34:26;21.88;;;16.42;;
53959;SDS011;39866;48.638;-2.020;2023-01-29T22:36:51;19.80;;;16.92;;
53959;SDS011;39866;48.638;-2.020;2023-01-29T22:39:17;20.08;;;16.50;;
53959;SDS011;39866;48.638;-2.020;2023-01-29T22:41:43;18.90;;;15.98;;
53959;SDS011;39866;48.638;-2.020;2023-01-29T22:44:08;18.83;;;14.93;;
53959;SDS011;39866;48.638;-2.020;2023-01-29T22:46:33;22.65;;;16.27;;
53959;SDS011;39866;48.638;-2.020;2023-01-29T22:48:59;21.13;;;16.75;;
53959;SDS011;39866;48.638;-2.020;2023-01-29T22:51:24;20.73;;;16.42;;
53959;SDS011;39866;48.638;-2.020;2023-01-29T22:53:51;22.13;;;15.73;;
53959;SDS011;39866;48.638;-2.020;2023-01-29T22:56:18;20.40;;;15.95;;
53959;SDS011;39866;48.638;-2.020;2023-01-29T22:58:49;19.95;;;16.70;;
53959;SDS011;39866;48.638;-2.020;2023-01-29T23:01:19;19.92;;;15.80;;
53959;SDS011;39866;48.638;-2.020;2023-01-29T23:03:46;21.08;;;16.23;;
53959;SDS011;39866;48.638;-2.020;2023-01-29T23:06:12;19.35;;;15.23;;
53959;SDS011;39866;48.638;-2.020;2023-01-29T23:08:38;20.17;;;15.68;;
53959;SDS011;39866;48.638;-2.020;2023-01-29T23:11:04;21.63;;;15.88;;
53959;SDS011;39866;48.638;-2.020;2023-01-29T23:13:46;17.15;;;14.65;;
53959;SDS011;39866;48.638;-2.020;2023-01-29T23:16:13;18.75;;;15.98;;
53959;SDS011;39866;48.638;-2.020;2023-01-29T23:18:40;22.55;;;15.80;;
53959;SDS011;39866;48.638;-2.020;2023-01-29T23:21:07;19.90;;;15.73;;
53959;SDS011;39866;48.638;-2.020;2023-01-29T23:23:33;18.13;;;14.50;;
53959;SDS011;39866;48.638;-2.020;2023-01-29T23:26:00;18.95;;;14.65;;
53959;SDS011;39866;48.638;-2.020;2023-01-29T23:28:45;22.73;;;16.25;;
53959;SDS011;39866;48.638;-2.020;2023-01-29T23:31:11;19.73;;;15.65;;
53959;SDS011;39866;48.638;-2.020;2023-01-29T23:33:37;18.70;;;14.65;;
53959;SDS011;39866;48.638;-2.020;2023-01-29T23:36:03;20.27;;;14.45;;
53959;SDS011;39866;48.638;-2.020;2023-01-29T23:38:28;17.02;;;14.13;;
53959;SDS011;39866;48.638;-2.020;2023-01-29T23:40:54;19.52;;;14.98;;
53959;SDS011;39866;48.638;-2.020;2023-01-29T23:43:22;18.42;;;14.60;;
53959;SDS011;39866;48.638;-2.020;2023-01-29T23:45:48;17.20;;;14.40;;
53959;SDS011;39866;48.638;-2.020;2023-01-29T23:48:14;18.77;;;13.45;;
53959;SDS011;39866;48.638;-2.020;2023-01-29T23:50:39;18.33;;;14.85;;
53959;SDS011;39866;48.638;-2.020;2023-01-29T23:53:04;17.50;;;15.15;;
53959;SDS011;39866;48.638;-2.020;2023-01-29T23:55:30;17.00;;;13.85;;
53959;SDS011;39866;48.638;-2.020;2023-01-29T23:57:55;21.63;;;14.57;;
